createdAt,value
2019-02-19T00:00:37.779Z,91.70
2019-02-19T00:03:25.757Z,91.90
2019-02-19T00:06:13.690Z,91.90
2019-02-19T00:09:01.426Z,92.00
2019-02-19T00:11:49.222Z,92.20
2019-02-19T00:14:37.063Z,92.20
2019-02-19T00:17:24.798Z,92.30
2019-02-19T00:20:13.009Z,92.20
2019-02-19T00:23:00.809Z,92.20
2019-02-19T00:25:48.493Z,92.30
2019-02-19T00:28:36.169Z,92.30
2019-02-19T00:31:23.669Z,92.40
2019-02-19T00:34:11.281Z,92.30
2019-02-19T00:36:59.137Z,92.50
2019-02-19T00:39:47.133Z,92.40
2019-02-19T00:42:35.049Z,92.50
2019-02-19T00:45:22.805Z,92.50
2019-02-19T00:48:10.161Z,92.50
2019-02-19T00:50:58.221Z,92.60
2019-02-19T00:53:48.173Z,92.60
2019-02-19T00:56:35.786Z,92.60
2019-02-19T00:59:23.540Z,92.90
2019-02-19T01:02:11.650Z,92.90
2019-02-19T01:04:59.653Z,92.80
2019-02-19T01:07:47.974Z,92.90
2019-02-19T01:10:35.612Z,93.00
2019-02-19T01:13:23.169Z,93.00
2019-02-19T01:16:10.750Z,92.80
2019-02-19T01:18:58.395Z,92.80
2019-02-19T01:21:45.749Z,92.80
2019-02-19T01:24:33.331Z,92.70
2019-02-19T01:27:21.369Z,92.80
2019-02-19T01:30:11.968Z,92.80
2019-02-19T01:32:59.524Z,93.10
2019-02-19T01:35:47.161Z,93.20
2019-02-19T01:38:35.397Z,93.30
2019-02-19T01:41:23.335Z,93.30
2019-02-19T01:44:10.981Z,93.40
2019-02-19T01:46:58.890Z,93.40
2019-02-19T01:49:46.201Z,93.40
2019-02-19T01:52:33.981Z,93.30
2019-02-19T01:55:21.893Z,93.40
2019-02-19T01:58:09.973Z,93.50
2019-02-19T02:00:57.549Z,93.60
2019-02-19T02:03:45.542Z,93.50
2019-02-19T02:06:33.131Z,93.60
2019-02-19T02:09:20.799Z,93.60
2019-02-19T02:12:08.455Z,93.50
2019-02-19T02:14:56.132Z,93.80
2019-02-19T02:17:44.054Z,93.40
2019-02-19T02:20:32.720Z,93.30
2019-02-19T02:23:20.628Z,93.20
2019-02-19T02:26:08.591Z,93.20
2019-02-19T02:28:56.526Z,93.00
2019-02-19T02:31:44.516Z,93.10
2019-02-19T02:34:32.168Z,92.90
2019-02-19T02:37:19.394Z,93.20
2019-02-19T02:40:07.188Z,93.40
2019-02-19T02:42:54.988Z,93.60
2019-02-19T02:45:52.374Z,94.10
2019-02-19T02:48:32.409Z,93.90
2019-02-19T02:51:20.118Z,93.80
2019-02-19T02:54:07.788Z,94.10
2019-02-19T02:56:55.368Z,94.30
2019-02-19T02:59:42.747Z,94.40
2019-02-19T03:02:30.469Z,94.30
2019-02-19T03:05:18.040Z,94.20
2019-02-19T03:08:06.279Z,94.00
2019-02-19T03:10:54.173Z,93.90
2019-02-19T03:13:42.073Z,93.90
2019-02-19T03:16:29.734Z,93.90
2019-02-19T03:19:17.085Z,93.80
2019-02-19T03:22:04.961Z,93.90
2019-02-19T03:24:52.609Z,93.80
2019-02-19T03:27:40.429Z,93.80
2019-02-19T03:30:28.254Z,93.80
2019-02-19T03:33:15.959Z,93.80
2019-02-19T03:36:03.532Z,93.90
2019-02-19T03:38:50.953Z,93.70
2019-02-19T03:41:38.362Z,93.90
2019-02-19T03:44:25.701Z,93.80
2019-02-19T03:47:13.322Z,93.80
2019-02-19T03:50:00.675Z,93.90
2019-02-19T03:52:48.497Z,93.90
2019-02-19T03:55:36.376Z,94.00
2019-02-19T03:58:24.316Z,93.80
2019-02-19T04:01:11.740Z,93.80
2019-02-19T04:03:59.265Z,93.80
2019-02-19T04:06:47.241Z,93.90
2019-02-19T04:09:35.035Z,93.90
2019-02-19T04:12:22.612Z,93.90
2019-02-19T04:15:10.618Z,93.90
2019-02-19T04:17:58.265Z,94.10
2019-02-19T04:20:45.911Z,94.20
2019-02-19T04:23:33.550Z,94.20
2019-02-19T04:26:21.819Z,94.20
2019-02-19T04:29:09.655Z,94.10
2019-02-19T04:31:57.086Z,94.20
2019-02-19T04:34:44.986Z,94.10
2019-02-19T04:37:32.715Z,94.00
2019-02-19T04:40:20.332Z,94.00
2019-02-19T04:43:08.182Z,94.00
2019-02-19T04:45:55.912Z,93.90
2019-02-19T04:48:43.724Z,94.00
2019-02-19T04:51:30.897Z,94.10
2019-02-19T04:54:18.140Z,94.30
2019-02-19T04:57:05.829Z,94.20
2019-02-19T04:59:53.486Z,94.20
2019-02-19T05:02:41.173Z,94.20
2019-02-19T05:05:28.536Z,94.30
2019-02-19T05:08:16.363Z,94.40
2019-02-19T05:11:03.728Z,94.30
2019-02-19T05:13:51.522Z,94.10
2019-02-19T05:16:40.977Z,94.00
2019-02-19T05:19:28.593Z,93.90
2019-02-19T05:22:16.157Z,93.90
2019-02-19T05:25:03.598Z,93.90
2019-02-19T05:27:51.589Z,94.00
2019-02-19T05:30:39.643Z,94.20
2019-02-19T05:33:27.124Z,94.10
2019-02-19T05:36:14.913Z,94.40
2019-02-19T05:39:04.690Z,94.30
2019-02-19T05:41:52.524Z,94.10
2019-02-19T05:44:40.164Z,93.90
2019-02-19T05:47:28.008Z,93.80
2019-02-19T05:50:15.597Z,93.60
2019-02-19T05:53:03.805Z,93.80
2019-02-19T05:55:51.099Z,94.00
2019-02-19T05:58:38.451Z,93.80
2019-02-19T06:01:26.749Z,93.80
2019-02-19T06:04:14.654Z,93.70
2019-02-19T06:07:02.690Z,93.90
2019-02-19T06:09:50.210Z,94.10
2019-02-19T06:12:38.019Z,94.20
2019-02-19T06:15:25.721Z,94.30
2019-02-19T06:18:14.866Z,94.10
2019-02-19T06:21:02.816Z,94.10
2019-02-19T06:23:52.589Z,94.20
2019-02-19T06:26:39.731Z,94.80
2019-02-19T06:29:27.256Z,94.60
2019-02-19T06:32:15.118Z,94.70
2019-02-19T06:35:02.894Z,94.50
2019-02-19T06:37:52.738Z,94.60
2019-02-19T06:40:40.521Z,94.40
2019-02-19T06:43:28.533Z,94.30
2019-02-19T06:46:15.925Z,94.30
2019-02-19T06:49:03.779Z,94.40
2019-02-19T06:51:51.406Z,94.50
2019-02-19T06:54:39.288Z,94.60
2019-02-19T06:57:26.606Z,94.80
2019-02-19T07:00:14.625Z,94.90
2019-02-19T07:03:12.133Z,94.70
2019-02-19T07:06:00.031Z,94.90
2019-02-19T07:08:47.785Z,95.00
2019-02-19T07:11:35.334Z,94.90
2019-02-19T07:14:22.947Z,94.90
2019-02-19T07:17:15.660Z,95.00
2019-02-19T07:19:59.949Z,95.10
2019-02-19T07:22:47.891Z,95.00
2019-02-19T07:25:35.852Z,94.80
2019-02-19T07:28:23.653Z,94.70
2019-02-19T07:31:11.476Z,94.70
2019-02-19T07:33:59.016Z,94.70
2019-02-19T07:36:46.662Z,94.80
2019-02-19T07:39:34.758Z,94.60
2019-02-19T07:42:22.735Z,94.40
2019-02-19T07:45:10.665Z,94.80
2019-02-19T07:47:58.597Z,94.40
2019-02-19T07:50:46.312Z,94.30
2019-02-19T07:53:33.733Z,94.20
2019-02-19T07:56:21.297Z,94.20
2019-02-19T07:59:09.273Z,93.90
2019-02-19T08:01:57.079Z,93.80
2019-02-19T08:04:44.872Z,93.70
2019-02-19T08:07:32.590Z,93.40
2019-02-19T08:10:20.400Z,93.00
2019-02-19T08:13:08.275Z,92.90
2019-02-19T08:15:55.921Z,92.20
2019-02-19T08:18:43.221Z,91.90
2019-02-19T08:21:31.333Z,92.10
2019-02-19T08:24:18.578Z,92.10
2019-02-19T08:27:06.102Z,91.60
2019-02-19T08:29:53.977Z,91.20
2019-02-19T08:32:41.496Z,90.80
2019-02-19T08:35:29.136Z,90.60
2019-02-19T08:38:16.473Z,90.50
2019-02-19T08:41:04.150Z,89.30
2019-02-19T08:43:51.829Z,89.20
2019-02-19T08:46:39.421Z,87.60
2019-02-19T08:49:26.770Z,86.40
2019-02-19T08:52:14.498Z,87.40
2019-02-19T08:55:02.190Z,85.20
2019-02-19T08:57:50.057Z,84.60
2019-02-19T09:00:38.554Z,85.20
2019-02-19T09:03:26.244Z,82.40
2019-02-19T09:06:13.997Z,81.40
2019-02-19T09:09:01.785Z,80.60
2019-02-19T09:11:49.384Z,77.90
2019-02-19T09:14:36.889Z,77.30
2019-02-19T09:17:24.383Z,76.40
2019-02-19T09:20:11.844Z,76.10
2019-02-19T09:22:59.464Z,75.70
2019-02-19T09:25:47.986Z,74.40
2019-02-19T09:28:35.414Z,72.40
2019-02-19T09:31:23.010Z,72.50
2019-02-19T09:34:10.253Z,69.60
2019-02-19T09:36:57.779Z,69.60
2019-02-19T09:39:45.324Z,70.30
2019-02-19T09:42:32.553Z,69.60
2019-02-19T09:45:20.321Z,67.20
2019-02-19T09:48:08.264Z,66.90
2019-02-19T09:50:55.867Z,65.50
2019-02-19T09:53:43.525Z,66.80
2019-02-19T09:56:31.787Z,65.30
2019-02-19T09:59:19.946Z,64.40
2019-02-19T10:02:07.318Z,64.30
2019-02-19T10:04:55.080Z,65.00
2019-02-19T10:07:42.713Z,62.70
2019-02-19T10:10:30.255Z,62.90
2019-02-19T10:13:17.837Z,62.70
2019-02-19T10:16:05.911Z,62.90
2019-02-19T10:18:53.865Z,61.60
2019-02-19T10:21:41.718Z,62.00
2019-02-19T10:24:28.949Z,61.90
2019-02-19T10:27:16.696Z,61.50
2019-02-19T10:30:05.342Z,60.50
2019-02-19T10:32:53.078Z,60.20
2019-02-19T10:35:41.081Z,59.80
2019-02-19T10:38:29.125Z,60.20
2019-02-19T10:41:17.102Z,58.80
2019-02-19T10:44:04.565Z,59.40
2019-02-19T10:46:52.222Z,58.40
2019-02-19T10:49:39.858Z,58.30
2019-02-19T10:52:27.589Z,58.50
2019-02-19T10:55:15.730Z,58.60
2019-02-19T10:58:03.418Z,58.40
2019-02-19T11:00:51.561Z,58.10
2019-02-19T11:03:38.941Z,57.80
2019-02-19T11:06:27.320Z,57.50
2019-02-19T11:09:15.400Z,57.60
2019-02-19T11:12:03.457Z,57.60
2019-02-19T11:14:50.998Z,56.70
2019-02-19T11:17:38.450Z,58.20
2019-02-19T11:20:25.823Z,58.20
2019-02-19T11:23:13.576Z,57.00
2019-02-19T11:26:00.873Z,56.20
2019-02-19T11:28:48.461Z,57.00
2019-02-19T11:31:36.356Z,56.30
2019-02-19T11:34:24.032Z,56.40
2019-02-19T11:37:11.626Z,56.20
2019-02-19T11:39:59.642Z,55.60
2019-02-19T11:42:47.439Z,55.60
2019-02-19T11:45:35.202Z,55.70
2019-02-19T11:48:23.073Z,55.60
2019-02-19T11:51:10.429Z,55.10
2019-02-19T11:53:58.939Z,55.30
2019-02-19T11:56:46.482Z,54.60
2019-02-19T11:59:34.485Z,55.50
2019-02-19T12:02:21.849Z,55.20
2019-02-19T12:05:09.608Z,55.00
2019-02-19T12:07:57.065Z,55.40
2019-02-19T12:10:44.477Z,55.30
2019-02-19T12:13:32.137Z,54.90
2019-02-19T12:16:19.857Z,55.20
2019-02-19T12:19:08.001Z,54.50
2019-02-19T12:21:55.849Z,54.70
2019-02-19T12:24:43.611Z,54.10
2019-02-19T12:27:31.596Z,54.60
2019-02-19T12:30:19.041Z,54.20
2019-02-19T12:33:06.399Z,54.60
2019-02-19T12:35:54.190Z,53.90
2019-02-19T12:38:41.702Z,54.50
2019-02-19T12:41:29.529Z,54.10
2019-02-19T12:44:17.699Z,54.50
2019-02-19T12:47:05.569Z,54.30
2019-02-19T12:49:52.963Z,54.90
2019-02-19T12:52:41.196Z,54.70
2019-02-19T12:55:28.870Z,54.40
2019-02-19T12:58:17.067Z,54.40
2019-02-19T13:01:05.541Z,54.30
2019-02-19T13:03:52.850Z,54.90
2019-02-19T13:06:40.712Z,54.70
2019-02-19T13:09:28.634Z,55.30
2019-02-19T13:12:16.241Z,55.10
2019-02-19T13:15:03.630Z,55.10
2019-02-19T13:17:51.523Z,53.90
2019-02-19T13:20:39.601Z,53.40
2019-02-19T13:23:26.853Z,53.60
2019-02-19T13:26:14.476Z,53.60
2019-02-19T13:29:02.518Z,52.70
2019-02-19T13:31:50.267Z,52.70
2019-02-19T13:34:38.105Z,52.40
2019-02-19T13:37:25.759Z,52.80
2019-02-19T13:40:13.701Z,53.30
2019-02-19T13:43:01.424Z,53.20
2019-02-19T13:45:49.927Z,53.50
2019-02-19T13:48:37.187Z,53.80
2019-02-19T13:51:25.089Z,54.70
2019-02-19T13:54:35.678Z,54.20
2019-02-19T13:57:23.648Z,53.80
2019-02-19T14:00:17.017Z,53.70
2019-02-19T14:03:04.605Z,53.50
2019-02-19T14:05:51.950Z,53.90
2019-02-19T14:08:39.279Z,54.30
2019-02-19T14:11:26.913Z,54.60
2019-02-19T14:14:36.633Z,54.70
2019-02-19T14:17:24.600Z,55.00
2019-02-19T14:20:27.877Z,54.90
2019-02-19T14:23:34.893Z,54.90
2019-02-19T14:26:40.293Z,55.40
2019-02-19T14:29:45.417Z,55.10
2019-02-19T14:32:50.893Z,55.70
2019-02-19T14:35:52.010Z,55.40
2019-02-19T14:38:58.128Z,54.90
2019-02-19T14:42:07.216Z,54.90
2019-02-19T14:45:13.247Z,55.80
2019-02-19T14:48:20.247Z,55.70
2019-02-19T14:51:22.599Z,56.10
2019-02-19T14:54:29.646Z,55.70
2019-02-19T14:57:30.208Z,55.60
2019-02-19T15:00:41.120Z,55.90
2019-02-19T15:03:46.134Z,56.30
2019-02-19T15:06:48.840Z,56.20
2019-02-19T15:10:04.217Z,56.20
2019-02-19T15:13:23.377Z,55.80
2019-02-19T15:16:19.518Z,55.90
2019-02-19T15:19:24.451Z,56.00
2019-02-19T15:22:20.779Z,55.80
2019-02-19T15:25:18.126Z,56.30
2019-02-19T15:28:15.898Z,56.40
2019-02-19T15:31:21.779Z,56.80
2019-02-19T15:34:27.726Z,56.90
2019-02-19T15:37:43.682Z,56.90
2019-02-19T15:40:49.362Z,57.30
2019-02-19T15:43:52.003Z,57.10
2019-02-19T15:46:46.609Z,57.20
2019-02-19T15:49:59.410Z,57.30
2019-02-19T15:53:06.332Z,57.40
2019-02-19T15:56:17.557Z,57.60
2019-02-19T15:59:21.107Z,57.70
2019-02-19T16:02:23.060Z,58.40
2019-02-19T16:05:32.942Z,58.40
2019-02-19T16:08:39.602Z,58.90
2019-02-19T16:11:40.905Z,58.60
2019-02-19T16:14:39.150Z,59.10
2019-02-19T16:17:49.096Z,59.50
2019-02-19T16:20:58.980Z,59.80
2019-02-19T16:23:57.763Z,60.40
2019-02-19T16:26:57.148Z,61.10
2019-02-19T16:29:53.706Z,60.80
2019-02-19T16:33:09.866Z,60.70
2019-02-19T16:36:22.342Z,61.20
2019-02-19T16:39:19.146Z,61.90
2019-02-19T16:42:24.629Z,62.60
2019-02-19T16:45:31.038Z,63.00
2019-02-19T16:48:56.514Z,64.30
2019-02-19T16:51:49.530Z,64.60
2019-02-19T16:54:45.585Z,65.30
2019-02-19T16:57:51.515Z,65.90
2019-02-19T17:01:10.796Z,67.30
2019-02-19T17:04:17.362Z,68.00
2019-02-19T17:07:13.493Z,69.10
2019-02-19T17:10:08.377Z,69.50
2019-02-19T17:13:02.519Z,70.00
2019-02-19T17:15:59.933Z,70.70
2019-02-19T17:19:05.206Z,70.70
2019-02-19T17:22:01.316Z,72.10
2019-02-19T17:24:59.802Z,72.80
2019-02-19T17:28:02.685Z,73.30
2019-02-19T17:31:18.408Z,73.70
2019-02-19T17:34:37.860Z,74.70
2019-02-19T17:37:37.253Z,74.90
2019-02-19T17:40:37.267Z,75.50
2019-02-19T17:43:39.457Z,75.30
2019-02-19T17:46:52.793Z,76.30
2019-02-19T17:49:47.072Z,75.70
2019-02-19T17:52:58.665Z,76.20
2019-02-19T17:56:11.705Z,76.40
2019-02-19T17:59:25.035Z,76.90
2019-02-19T18:02:20.323Z,76.60
2019-02-19T18:05:36.620Z,76.60
2019-02-19T18:08:51.915Z,77.60
2019-02-19T18:11:54.994Z,76.90
2019-02-19T18:14:53.390Z,76.80
2019-02-19T18:18:02.937Z,76.70
2019-02-19T18:20:50.485Z,77.30
2019-02-19T18:23:38.368Z,78.50
2019-02-19T18:26:26.092Z,78.60
2019-02-19T18:29:14.049Z,79.60
2019-02-19T18:32:01.602Z,80.10
2019-02-19T18:34:49.245Z,80.50
2019-02-19T18:37:36.891Z,80.50
2019-02-19T18:40:24.891Z,80.70
2019-02-19T18:43:12.449Z,81.10
2019-02-19T18:46:00.367Z,80.80
2019-02-19T18:48:48.546Z,81.60
2019-02-19T18:51:36.741Z,81.90
2019-02-19T18:54:24.821Z,81.50
2019-02-19T18:57:12.639Z,81.30
2019-02-19T19:00:00.577Z,82.40
2019-02-19T19:02:48.378Z,81.70
2019-02-19T19:05:35.784Z,81.60
2019-02-19T19:08:23.719Z,81.80
2019-02-19T19:11:11.636Z,81.60
2019-02-19T19:13:59.284Z,81.40
2019-02-19T19:16:47.066Z,81.50
2019-02-19T19:19:35.014Z,82.30
2019-02-19T19:22:22.956Z,82.40
2019-02-19T19:25:10.939Z,82.60
2019-02-19T19:27:58.848Z,82.70
2019-02-19T19:30:46.286Z,82.50
2019-02-19T19:33:34.277Z,82.60
2019-02-19T19:36:21.618Z,82.70
2019-02-19T19:39:09.255Z,82.40
2019-02-19T19:41:57.257Z,82.70
2019-02-19T19:44:45.007Z,82.90
2019-02-19T19:47:32.534Z,82.70
2019-02-19T19:50:20.058Z,82.60
2019-02-19T19:53:07.575Z,82.70
2019-02-19T19:55:55.403Z,82.90
2019-02-19T19:58:43.058Z,83.50
2019-02-19T20:01:30.697Z,84.10
2019-02-19T20:04:18.041Z,84.10
2019-02-19T20:07:05.797Z,84.50
2019-02-19T20:09:53.405Z,84.90
2019-02-19T20:12:41.266Z,85.10
2019-02-19T20:15:29.126Z,85.50
2019-02-19T20:18:17.878Z,86.60
2019-02-19T20:21:05.587Z,86.00
2019-02-19T20:23:53.290Z,85.90
2019-02-19T20:26:41.001Z,85.70
2019-02-19T20:29:28.618Z,86.20
2019-02-19T20:32:16.436Z,86.40
2019-02-19T20:35:04.490Z,86.50
2019-02-19T20:37:54.212Z,86.90
2019-02-19T20:40:41.825Z,87.10
2019-02-19T20:43:29.538Z,87.20
2019-02-19T20:46:16.799Z,87.30
2019-02-19T20:49:04.618Z,87.40
2019-02-19T20:51:52.210Z,87.30
2019-02-19T20:54:40.417Z,87.50
2019-02-19T20:57:28.271Z,87.60
2019-02-19T21:00:17.662Z,88.00
2019-02-19T21:03:05.004Z,88.10
2019-02-19T21:05:52.334Z,88.30
2019-02-19T21:08:40.390Z,88.50
2019-02-19T21:11:28.119Z,88.10
2019-02-19T21:14:16.162Z,88.50
2019-02-19T21:17:04.079Z,88.70
2019-02-19T21:19:52.181Z,88.70
2019-02-19T21:22:40.000Z,88.80
2019-02-19T21:25:31.094Z,89.30
2019-02-19T21:28:16.937Z,89.80
2019-02-19T21:31:04.940Z,89.70
2019-02-19T21:33:52.629Z,89.50
2019-02-19T21:36:40.298Z,89.70
2019-02-19T21:39:28.536Z,89.20
2019-02-19T21:42:16.611Z,89.20
2019-02-19T21:45:05.162Z,89.40
2019-02-19T21:47:53.889Z,89.30
2019-02-19T21:50:42.284Z,89.40
2019-02-19T21:53:30.663Z,89.50
2019-02-19T21:56:19.165Z,89.50
2019-02-19T21:59:10.671Z,89.60
2019-02-19T22:01:58.828Z,89.00
2019-02-19T22:04:47.049Z,89.50
2019-02-19T22:07:35.268Z,89.70
2019-02-19T22:10:23.740Z,89.50
2019-02-19T22:13:11.251Z,89.70
2019-02-19T22:15:59.222Z,90.10
2019-02-19T22:18:47.519Z,89.80
2019-02-19T22:22:03.261Z,89.80
2019-02-19T22:24:45.345Z,90.00
2019-02-19T22:27:32.391Z,89.50
2019-02-19T22:30:20.222Z,89.50
2019-02-19T22:33:07.565Z,89.30
2019-02-19T22:35:54.879Z,89.30
2019-02-19T22:38:42.310Z,89.60
2019-02-19T22:41:29.886Z,90.00
2019-02-19T22:44:17.577Z,90.10
2019-02-19T22:47:05.442Z,90.20
2019-02-19T22:49:52.483Z,90.10
2019-02-19T22:52:39.658Z,90.00
2019-02-19T22:55:54.836Z,90.10
2019-02-19T22:58:42.715Z,90.20
2019-02-19T23:01:33.493Z,90.30
2019-02-19T23:04:20.839Z,90.30
2019-02-19T23:07:09.054Z,90.20
2019-02-19T23:09:57.063Z,90.30
2019-02-19T23:12:44.317Z,90.40
2019-02-19T23:15:31.772Z,90.60
2019-02-19T23:18:20.025Z,90.80
2019-02-19T23:21:07.906Z,90.90
2019-02-19T23:23:56.430Z,91.10
2019-02-19T23:26:44.096Z,91.20
2019-02-19T23:29:31.802Z,91.40
2019-02-19T23:32:19.814Z,91.40
2019-02-19T23:35:31.964Z,91.60
2019-02-19T23:38:19.566Z,91.60
2019-02-19T23:41:07.289Z,91.80
2019-02-19T23:43:54.677Z,92.00
2019-02-19T23:46:43.979Z,91.80
2019-02-19T23:49:32.017Z,91.80
2019-02-19T23:52:19.658Z,91.90
2019-02-19T23:55:07.384Z,91.80
2019-02-19T23:57:54.778Z,91.80
